Terminal Aerodrome Forecast
Issued by NWS

Home | Current Version | Previous Version | Text Only | Print | Product List | Glossary On
Versions: 1 2 3 4 5 6 7 8 9 10 11 12 13 14 15 16 17 18 19 20 21 22
000
FTUS44 KLZK 302137 AAA
TAFHOT
TAF AMD
KHOT 302137Z 3022/3118 32005KT P6SM VCTS SCT030CB BKN050 OVC250
      TEMPO 3022/3101 VRB15G25KT 5SM -TSRA BR BKN035CB OVC040
     FM310200 08004KT P6SM VCTS SCT040CB SCT250
     FM311000 12003KT P6SM BKN040=

USA.gov is the U.S. government's official web portal to all federal, state and local government web resources and services.